sensor_id;sensor_type;location;lat;lon;timestamp;temperature;humidity
45837;DHT22;31548;51.420;-0.040;2022-07-10T00:01:00;20.40;98.80
45837;DHT22;31548;51.420;-0.040;2022-07-10T00:03:27;20.40;98.70
45837;DHT22;31548;51.420;-0.040;2022-07-10T00:05:55;20.40;98.70
45837;DHT22;31548;51.420;-0.040;2022-07-10T00:08:23;20.40;98.70
45837;DHT22;31548;51.420;-0.040;2022-07-10T00:10:51;20.30;98.80
45837;DHT22;31548;51.420;-0.040;2022-07-10T00:13:18;20.20;98.90
45837;DHT22;31548;51.420;-0.040;2022-07-10T00:15:46;20.10;99.00
45837;DHT22;31548;51.420;-0.040;2022-07-10T00:18:13;20.10;98.90
45837;DHT22;31548;51.420;-0.040;2022-07-10T00:20:41;20.20;98.90
45837;DHT22;31548;51.420;-0.040;2022-07-10T00:23:08;20.20;99.00
45837;DHT22;31548;51.420;-0.040;2022-07-10T00:25:36;20.10;99.00
45837;DHT22;31548;51.420;-0.040;2022-07-10T00:28:03;20.10;99.00
45837;DHT22;31548;51.420;-0.040;2022-07-10T00:30:31;20.10;99.10
45837;DHT22;31548;51.420;-0.040;2022-07-10T00:32:59;20.00;99.20
45837;DHT22;31548;51.420;-0.040;2022-07-10T00:35:26;20.00;99.20
45837;DHT22;31548;51.420;-0.040;2022-07-10T00:37:54;19.90;99.30
45837;DHT22;31548;51.420;-0.040;2022-07-10T00:40:22;19.90;99.40
45837;DHT22;31548;51.420;-0.040;2022-07-10T00:42:49;19.90;99.40
45837;DHT22;31548;51.420;-0.040;2022-07-10T00:45:17;19.80;99.50
45837;DHT22;31548;51.420;-0.040;2022-07-10T00:47:44;19.80;99.50
45837;DHT22;31548;51.420;-0.040;2022-07-10T00:50:12;19.80;99.50
45837;DHT22;31548;51.420;-0.040;2022-07-10T00:52:40;19.80;99.40
45837;DHT22;31548;51.420;-0.040;2022-07-10T00:55:09;19.80;99.40
45837;DHT22;31548;51.420;-0.040;2022-07-10T00:57:37;19.60;99.50
45837;DHT22;31548;51.420;-0.040;2022-07-10T01:00:07;19.60;99.80
45837;DHT22;31548;51.420;-0.040;2022-07-10T01:02:44;19.40;99.90
45837;DHT22;31548;51.420;-0.040;2022-07-10T01:05:11;19.50;99.90
45837;DHT22;31548;51.420;-0.040;2022-07-10T01:07:39;19.40;99.90
45837;DHT22;31548;51.420;-0.040;2022-07-10T01:10:07;19.40;99.90
45837;DHT22;31548;51.420;-0.040;2022-07-10T01:12:34;19.40;99.90
45837;DHT22;31548;51.420;-0.040;2022-07-10T01:15:04;19.40;99.90
45837;DHT22;31548;51.420;-0.040;2022-07-10T01:17:31;19.40;99.90
45837;DHT22;31548;51.420;-0.040;2022-07-10T01:20:04;19.30;99.90
45837;DHT22;31548;51.420;-0.040;2022-07-10T01:22:32;19.30;99.90
45837;DHT22;31548;51.420;-0.040;2022-07-10T01:25:00;19.20;99.90
45837;DHT22;31548;51.420;-0.040;2022-07-10T01:27:27;19.20;99.90
45837;DHT22;31548;51.420;-0.040;2022-07-10T01:29:55;19.00;99.90
45837;DHT22;31548;51.420;-0.040;2022-07-10T01:32:22;18.90;99.90
45837;DHT22;31548;51.420;-0.040;2022-07-10T01:34:50;19.00;99.90
45837;DHT22;31548;51.420;-0.040;2022-07-10T01:37:18;19.00;99.90
45837;DHT22;31548;51.420;-0.040;2022-07-10T01:39:45;19.00;99.90
45837;DHT22;31548;51.420;-0.040;2022-07-10T01:42:13;19.00;99.90
45837;DHT22;31548;51.420;-0.040;2022-07-10T01:44:41;19.00;99.90
45837;DHT22;31548;51.420;-0.040;2022-07-10T01:47:08;18.90;99.90
45837;DHT22;31548;51.420;-0.040;2022-07-10T01:49:36;18.90;99.90
45837;DHT22;31548;51.420;-0.040;2022-07-10T01:52:05;18.80;99.90
45837;DHT22;31548;51.420;-0.040;2022-07-10T01:54:32;18.70;99.90
45837;DHT22;31548;51.420;-0.040;2022-07-10T01:57:00;18.70;99.90
45837;DHT22;31548;51.420;-0.040;2022-07-10T01:59:27;18.70;99.90
45837;DHT22;31548;51.420;-0.040;2022-07-10T02:01:55;18.60;99.90
45837;DHT22;31548;51.420;-0.040;2022-07-10T02:04:23;18.60;99.90
45837;DHT22;31548;51.420;-0.040;2022-07-10T02:07:18;18.60;99.90
45837;DHT22;31548;51.420;-0.040;2022-07-10T02:09:46;18.60;99.90
45837;DHT22;31548;51.420;-0.040;2022-07-10T02:12:14;18.50;99.90
45837;DHT22;31548;51.420;-0.040;2022-07-10T02:14:43;18.50;99.90
45837;DHT22;31548;51.420;-0.040;2022-07-10T02:17:10;18.50;99.90
45837;DHT22;31548;51.420;-0.040;2022-07-10T02:19:38;18.50;99.90
45837;DHT22;31548;51.420;-0.040;2022-07-10T02:22:06;18.50;99.90
45837;DHT22;31548;51.420;-0.040;2022-07-10T02:24:33;18.50;99.90
45837;DHT22;31548;51.420;-0.040;2022-07-10T02:27:01;18.50;99.90
45837;DHT22;31548;51.420;-0.040;2022-07-10T02:29:28;18.30;99.90
45837;DHT22;31548;51.420;-0.040;2022-07-10T02:31:56;18.30;99.90
45837;DHT22;31548;51.420;-0.040;2022-07-10T02:34:23;18.30;99.90
45837;DHT22;31548;51.420;-0.040;2022-07-10T02:36:51;18.20;99.90
45837;DHT22;31548;51.420;-0.040;2022-07-10T02:39:18;18.10;99.90
45837;DHT22;31548;51.420;-0.040;2022-07-10T02:41:46;18.10;99.90
45837;DHT22;31548;51.420;-0.040;2022-07-10T02:44:13;18.10;99.90
45837;DHT22;31548;51.420;-0.040;2022-07-10T02:46:41;18.10;99.90
45837;DHT22;31548;51.420;-0.040;2022-07-10T02:49:08;18.10;99.90
45837;DHT22;31548;51.420;-0.040;2022-07-10T02:51:36;18.00;99.90
45837;DHT22;31548;51.420;-0.040;2022-07-10T02:54:03;18.00;99.90
45837;DHT22;31548;51.420;-0.040;2022-07-10T02:56:31;18.00;99.90
45837;DHT22;31548;51.420;-0.040;2022-07-10T02:58:58;18.00;99.90
45837;DHT22;31548;51.420;-0.040;2022-07-10T03:01:26;18.10;99.90
45837;DHT22;31548;51.420;-0.040;2022-07-10T03:03:53;18.00;99.90
45837;DHT22;31548;51.420;-0.040;2022-07-10T03:06:21;18.00;99.90
45837;DHT22;31548;51.420;-0.040;2022-07-10T03:08:48;17.90;99.90
45837;DHT22;31548;51.420;-0.040;2022-07-10T03:11:16;17.90;99.90
45837;DHT22;31548;51.420;-0.040;2022-07-10T03:13:43;17.80;99.90
45837;DHT22;31548;51.420;-0.040;2022-07-10T03:16:11;17.90;99.90
45837;DHT22;31548;51.420;-0.040;2022-07-10T03:18:39;17.80;99.90
45837;DHT22;31548;51.420;-0.040;2022-07-10T03:21:07;17.80;99.90
45837;DHT22;31548;51.420;-0.040;2022-07-10T03:23:35;17.70;99.90
45837;DHT22;31548;51.420;-0.040;2022-07-10T03:26:02;17.70;99.90
45837;DHT22;31548;51.420;-0.040;2022-07-10T03:28:30;17.60;99.90
45837;DHT22;31548;51.420;-0.040;2022-07-10T03:30:58;17.50;99.90
45837;DHT22;31548;51.420;-0.040;2022-07-10T03:33:25;17.50;99.90
45837;DHT22;31548;51.420;-0.040;2022-07-10T03:35:53;17.50;99.90
45837;DHT22;31548;51.420;-0.040;2022-07-10T03:38:20;17.50;99.90
45837;DHT22;31548;51.420;-0.040;2022-07-10T03:40:48;17.50;99.90
45837;DHT22;31548;51.420;-0.040;2022-07-10T03:43:16;17.40;99.90
45837;DHT22;31548;51.420;-0.040;2022-07-10T03:45:43;17.50;99.90
45837;DHT22;31548;51.420;-0.040;2022-07-10T03:48:11;17.50;99.90
45837;DHT22;31548;51.420;-0.040;2022-07-10T03:50:39;17.50;99.90
45837;DHT22;31548;51.420;-0.040;2022-07-10T03:53:06;17.50;99.90
45837;DHT22;31548;51.420;-0.040;2022-07-10T03:55:34;17.40;99.90
45837;DHT22;31548;51.420;-0.040;2022-07-10T03:58:01;17.40;99.90
45837;DHT22;31548;51.420;-0.040;2022-07-10T04:00:31;17.40;99.90
45837;DHT22;31548;51.420;-0.040;2022-07-10T04:03:02;17.40;99.90
45837;DHT22;31548;51.420;-0.040;2022-07-10T04:05:30;17.40;99.90
45837;DHT22;31548;51.420;-0.040;2022-07-10T04:08:00;17.40;99.90
45837;DHT22;31548;51.420;-0.040;2022-07-10T04:10:29;17.30;99.90
45837;DHT22;31548;51.420;-0.040;2022-07-10T04:12:58;17.20;99.90
45837;DHT22;31548;51.420;-0.040;2022-07-10T04:15:26;17.20;99.90
45837;DHT22;31548;51.420;-0.040;2022-07-10T04:17:54;17.10;99.90
45837;DHT22;31548;51.420;-0.040;2022-07-10T04:20:21;17.10;99.90
45837;DHT22;31548;51.420;-0.040;2022-07-10T04:22:49;17.20;99.90
45837;DHT22;31548;51.420;-0.040;2022-07-10T04:25:16;17.10;99.90
45837;DHT22;31548;51.420;-0.040;2022-07-10T04:27:44;17.20;99.90
45837;DHT22;31548;51.420;-0.040;2022-07-10T04:30:11;17.20;99.90
45837;DHT22;31548;51.420;-0.040;2022-07-10T04:32:39;17.10;99.90
45837;DHT22;31548;51.420;-0.040;2022-07-10T04:35:07;17.20;99.90
45837;DHT22;31548;51.420;-0.040;2022-07-10T04:37:34;17.00;99.90
45837;DHT22;31548;51.420;-0.040;2022-07-10T04:40:02;17.10;99.90
45837;DHT22;31548;51.420;-0.040;2022-07-10T04:42:30;17.20;99.90
45837;DHT22;31548;51.420;-0.040;2022-07-10T04:44:57;17.10;99.90
45837;DHT22;31548;51.420;-0.040;2022-07-10T04:47:25;17.10;99.90
45837;DHT22;31548;51.420;-0.040;2022-07-10T04:49:52;17.10;99.90
45837;DHT22;31548;51.420;-0.040;2022-07-10T04:52:20;17.20;99.90
45837;DHT22;31548;51.420;-0.040;2022-07-10T04:54:47;17.20;99.90
45837;DHT22;31548;51.420;-0.040;2022-07-10T04:57:15;17.20;99.90
45837;DHT22;31548;51.420;-0.040;2022-07-10T04:59:43;17.20;99.90
45837;DHT22;31548;51.420;-0.040;2022-07-10T05:02:11;17.20;99.90
45837;DHT22;31548;51.420;-0.040;2022-07-10T05:04:38;17.30;99.90
45837;DHT22;31548;51.420;-0.040;2022-07-10T05:07:06;17.30;99.90
45837;DHT22;31548;51.420;-0.040;2022-07-10T05:09:33;17.30;99.90
45837;DHT22;31548;51.420;-0.040;2022-07-10T05:12:01;17.30;99.90
45837;DHT22;31548;51.420;-0.040;2022-07-10T05:14:28;17.40;99.90
45837;DHT22;31548;51.420;-0.040;2022-07-10T05:16:56;17.40;99.90
45837;DHT22;31548;51.420;-0.040;2022-07-10T05:19:23;17.40;99.90
45837;DHT22;31548;51.420;-0.040;2022-07-10T05:21:51;17.50;99.90
45837;DHT22;31548;51.420;-0.040;2022-07-10T05:24:19;17.50;99.90
45837;DHT22;31548;51.420;-0.040;2022-07-10T05:26:46;17.50;99.90
45837;DHT22;31548;51.420;-0.040;2022-07-10T05:29:14;17.50;99.90
45837;DHT22;31548;51.420;-0.040;2022-07-10T05:31:41;17.60;99.90
45837;DHT22;31548;51.420;-0.040;2022-07-10T05:34:09;17.70;99.90
45837;DHT22;31548;51.420;-0.040;2022-07-10T05:36:36;17.70;99.60
45837;DHT22;31548;51.420;-0.040;2022-07-10T05:39:04;17.80;99.70
45837;DHT22;31548;51.420;-0.040;2022-07-10T05:41:31;17.70;99.40
45837;DHT22;31548;51.420;-0.040;2022-07-10T05:44:00;17.70;98.20
45837;DHT22;31548;51.420;-0.040;2022-07-10T05:46:27;17.80;99.50
45837;DHT22;31548;51.420;-0.040;2022-07-10T05:48:55;17.80;99.30
45837;DHT22;31548;51.420;-0.040;2022-07-10T05:51:22;17.90;99.50
45837;DHT22;31548;51.420;-0.040;2022-07-10T05:54:03;17.90;99.20
45837;DHT22;31548;51.420;-0.040;2022-07-10T05:56:30;18.00;99.00
45837;DHT22;31548;51.420;-0.040;2022-07-10T05:58:58;18.00;99.00
45837;DHT22;31548;51.420;-0.040;2022-07-10T06:01:26;18.10;99.00
45837;DHT22;31548;51.420;-0.040;2022-07-10T06:03:54;18.10;99.10
45837;DHT22;31548;51.420;-0.040;2022-07-10T06:06:21;18.20;98.70
45837;DHT22;31548;51.420;-0.040;2022-07-10T06:08:49;18.20;98.40
45837;DHT22;31548;51.420;-0.040;2022-07-10T06:11:16;18.10;98.50
45837;DHT22;31548;51.420;-0.040;2022-07-10T06:13:44;18.20;98.70
45837;DHT22;31548;51.420;-0.040;2022-07-10T06:16:11;18.20;98.70
45837;DHT22;31548;51.420;-0.040;2022-07-10T06:18:39;18.30;98.50
45837;DHT22;31548;51.420;-0.040;2022-07-10T06:21:07;18.30;98.50
45837;DHT22;31548;51.420;-0.040;2022-07-10T06:23:35;18.30;98.50
45837;DHT22;31548;51.420;-0.040;2022-07-10T06:26:03;18.40;98.40
45837;DHT22;31548;51.420;-0.040;2022-07-10T06:28:30;18.40;98.50
45837;DHT22;31548;51.420;-0.040;2022-07-10T06:30:58;18.40;98.20
45837;DHT22;31548;51.420;-0.040;2022-07-10T06:33:27;18.40;98.40
45837;DHT22;31548;51.420;-0.040;2022-07-10T06:35:54;18.50;98.50
45837;DHT22;31548;51.420;-0.040;2022-07-10T06:38:22;18.50;98.50
45837;DHT22;31548;51.420;-0.040;2022-07-10T06:40:50;18.50;98.30
45837;DHT22;31548;51.420;-0.040;2022-07-10T06:43:18;18.60;97.60
45837;DHT22;31548;51.420;-0.040;2022-07-10T06:45:46;18.70;98.30
45837;DHT22;31548;51.420;-0.040;2022-07-10T06:48:14;18.70;98.10
45837;DHT22;31548;51.420;-0.040;2022-07-10T06:50:42;18.70;98.40
45837;DHT22;31548;51.420;-0.040;2022-07-10T06:53:10;18.70;97.80
45837;DHT22;31548;51.420;-0.040;2022-07-10T06:55:38;18.80;98.00
45837;DHT22;31548;51.420;-0.040;2022-07-10T06:58:05;18.80;97.70
45837;DHT22;31548;51.420;-0.040;2022-07-10T07:00:33;18.80;98.30
45837;DHT22;31548;51.420;-0.040;2022-07-10T07:03:00;18.90;97.50
45837;DHT22;31548;51.420;-0.040;2022-07-10T07:05:28;19.00;98.00
45837;DHT22;31548;51.420;-0.040;2022-07-10T07:07:55;19.00;97.20
45837;DHT22;31548;51.420;-0.040;2022-07-10T07:10:23;19.00;97.60
45837;DHT22;31548;51.420;-0.040;2022-07-10T07:12:50;19.10;97.90
45837;DHT22;31548;51.420;-0.040;2022-07-10T07:15:18;19.10;97.50
45837;DHT22;31548;51.420;-0.040;2022-07-10T07:17:47;19.10;97.00
45837;DHT22;31548;51.420;-0.040;2022-07-10T07:20:25;19.30;97.70
45837;DHT22;31548;51.420;-0.040;2022-07-10T07:24:59;19.30;97.50
45837;DHT22;31548;51.420;-0.040;2022-07-10T07:27:27;19.40;97.60
45837;DHT22;31548;51.420;-0.040;2022-07-10T07:29:54;19.50;97.70
45837;DHT22;31548;51.420;-0.040;2022-07-10T07:32:21;19.60;97.20
45837;DHT22;31548;51.420;-0.040;2022-07-10T07:34:48;19.60;97.40
45837;DHT22;31548;51.420;-0.040;2022-07-10T07:37:16;19.70;97.40
45837;DHT22;31548;51.420;-0.040;2022-07-10T07:39:43;19.70;97.50
45837;DHT22;31548;51.420;-0.040;2022-07-10T07:42:11;19.70;97.40
45837;DHT22;31548;51.420;-0.040;2022-07-10T07:44:38;19.80;97.70
45837;DHT22;31548;51.420;-0.040;2022-07-10T07:47:05;19.90;97.70
45837;DHT22;31548;51.420;-0.040;2022-07-10T07:49:32;19.80;97.50
45837;DHT22;31548;51.420;-0.040;2022-07-10T07:52:00;19.90;97.60
45837;DHT22;31548;51.420;-0.040;2022-07-10T07:54:27;20.00;96.50
45837;DHT22;31548;51.420;-0.040;2022-07-10T07:56:54;20.10;97.40
45837;DHT22;31548;51.420;-0.040;2022-07-10T07:59:21;20.10;97.70
45837;DHT22;31548;51.420;-0.040;2022-07-10T08:01:49;20.10;97.60
45837;DHT22;31548;51.420;-0.040;2022-07-10T08:04:18;20.20;97.60
45837;DHT22;31548;51.420;-0.040;2022-07-10T08:06:45;20.10;97.60
45837;DHT22;31548;51.420;-0.040;2022-07-10T08:09:12;20.20;97.50
45837;DHT22;31548;51.420;-0.040;2022-07-10T08:11:40;20.30;97.20
45837;DHT22;31548;51.420;-0.040;2022-07-10T08:14:07;20.40;97.10
45837;DHT22;31548;51.420;-0.040;2022-07-10T08:16:34;20.40;97.40
45837;DHT22;31548;51.420;-0.040;2022-07-10T08:19:02;20.50;97.40
45837;DHT22;31548;51.420;-0.040;2022-07-10T08:21:29;20.50;97.20
45837;DHT22;31548;51.420;-0.040;2022-07-10T08:23:57;20.60;97.10
45837;DHT22;31548;51.420;-0.040;2022-07-10T08:26:24;20.70;97.10
45837;DHT22;31548;51.420;-0.040;2022-07-10T08:28:52;20.80;97.00
45837;DHT22;31548;51.420;-0.040;2022-07-10T08:31:19;20.80;96.70
45837;DHT22;31548;51.420;-0.040;2022-07-10T08:33:47;20.80;95.60
45837;DHT22;31548;51.420;-0.040;2022-07-10T08:36:15;20.90;96.50
45837;DHT22;31548;51.420;-0.040;2022-07-10T08:39:02;21.00;95.90
45837;DHT22;31548;51.420;-0.040;2022-07-10T08:41:31;21.10;95.00
45837;DHT22;31548;51.420;-0.040;2022-07-10T08:44:00;21.10;96.20
45837;DHT22;31548;51.420;-0.040;2022-07-10T08:46:30;21.10;96.00
45837;DHT22;31548;51.420;-0.040;2022-07-10T08:48:59;21.20;95.90
45837;DHT22;31548;51.420;-0.040;2022-07-10T08:51:36;21.20;95.60
45837;DHT22;31548;51.420;-0.040;2022-07-10T08:54:05;21.30;95.80
45837;DHT22;31548;51.420;-0.040;2022-07-10T08:56:34;21.50;96.30
45837;DHT22;31548;51.420;-0.040;2022-07-10T08:59:03;21.60;95.60
45837;DHT22;31548;51.420;-0.040;2022-07-10T09:01:33;21.40;95.50
45837;DHT22;31548;51.420;-0.040;2022-07-10T09:04:01;21.50;95.60
45837;DHT22;31548;51.420;-0.040;2022-07-10T09:06:28;21.60;95.50
45837;DHT22;31548;51.420;-0.040;2022-07-10T09:09:07;21.70;95.40
45837;DHT22;31548;51.420;-0.040;2022-07-10T09:11:35;21.80;95.30
45837;DHT22;31548;51.420;-0.040;2022-07-10T09:14:05;21.90;94.90
45837;DHT22;31548;51.420;-0.040;2022-07-10T09:16:36;21.90;95.30
45837;DHT22;31548;51.420;-0.040;2022-07-10T09:19:25;22.00;95.10
45837;DHT22;31548;51.420;-0.040;2022-07-10T09:22:11;22.20;94.70
45837;DHT22;31548;51.420;-0.040;2022-07-10T09:24:44;22.20;94.80
45837;DHT22;31548;51.420;-0.040;2022-07-10T09:27:13;22.10;94.80
45837;DHT22;31548;51.420;-0.040;2022-07-10T09:29:50;22.30;94.60
45837;DHT22;31548;51.420;-0.040;2022-07-10T09:32:26;22.50;95.00
45837;DHT22;31548;51.420;-0.040;2022-07-10T09:34:54;22.60;94.40
45837;DHT22;31548;51.420;-0.040;2022-07-10T09:37:41;22.60;94.00
45837;DHT22;31548;51.420;-0.040;2022-07-10T09:40:10;22.50;94.40
45837;DHT22;31548;51.420;-0.040;2022-07-10T09:42:39;22.80;94.40
45837;DHT22;31548;51.420;-0.040;2022-07-10T09:50:28;23.10;93.90
45837;DHT22;31548;51.420;-0.040;2022-07-10T09:53:08;23.20;93.70
45837;DHT22;31548;51.420;-0.040;2022-07-10T09:55:39;23.30;92.70
45837;DHT22;31548;51.420;-0.040;2022-07-10T09:58:09;23.50;93.70
45837;DHT22;31548;51.420;-0.040;2022-07-10T10:00:39;23.40;93.20
45837;DHT22;31548;51.420;-0.040;2022-07-10T10:03:09;23.50;92.90
45837;DHT22;31548;51.420;-0.040;2022-07-10T10:05:56;23.50;93.00
45837;DHT22;31548;51.420;-0.040;2022-07-10T10:08:44;23.70;92.70
45837;DHT22;31548;51.420;-0.040;2022-07-10T10:11:15;23.80;92.60
45837;DHT22;31548;51.420;-0.040;2022-07-10T10:13:44;23.90;92.60
45837;DHT22;31548;51.420;-0.040;2022-07-10T10:16:11;24.00;92.10
45837;DHT22;31548;51.420;-0.040;2022-07-10T10:18:40;24.10;92.20
45837;DHT22;31548;51.420;-0.040;2022-07-10T10:21:29;23.90;92.00
45837;DHT22;31548;51.420;-0.040;2022-07-10T10:23:57;24.00;92.60
45837;DHT22;31548;51.420;-0.040;2022-07-10T10:26:25;24.10;92.10
45837;DHT22;31548;51.420;-0.040;2022-07-10T10:28:53;24.00;92.00
45837;DHT22;31548;51.420;-0.040;2022-07-10T10:31:21;24.10;92.20
45837;DHT22;31548;51.420;-0.040;2022-07-10T10:33:54;24.50;92.40
45837;DHT22;31548;51.420;-0.040;2022-07-10T10:39:12;24.70;91.50
45837;DHT22;31548;51.420;-0.040;2022-07-10T10:41:48;24.90;91.40
45837;DHT22;31548;51.420;-0.040;2022-07-10T10:49:50;25.00;90.80
45837;DHT22;31548;51.420;-0.040;2022-07-10T10:52:18;25.10;91.20
45837;DHT22;31548;51.420;-0.040;2022-07-10T11:00:04;25.30;90.30
45837;DHT22;31548;51.420;-0.040;2022-07-10T11:02:37;25.50;90.20
45837;DHT22;31548;51.420;-0.040;2022-07-10T11:10:30;25.70;89.60
45837;DHT22;31548;51.420;-0.040;2022-07-10T11:13:02;25.90;88.80
45837;DHT22;31548;51.420;-0.040;2022-07-10T11:15:31;26.00;89.10
45837;DHT22;31548;51.420;-0.040;2022-07-10T11:18:08;26.10;88.50
45837;DHT22;31548;51.420;-0.040;2022-07-10T11:20:40;26.20;89.10
45837;DHT22;31548;51.420;-0.040;2022-07-10T11:23:41;26.50;89.50
45837;DHT22;31548;51.420;-0.040;2022-07-10T11:26:11;26.80;88.40
45837;DHT22;31548;51.420;-0.040;2022-07-10T11:31:10;26.80;87.40
45837;DHT22;31548;51.420;-0.040;2022-07-10T11:33:43;26.70;87.20
45837;DHT22;31548;51.420;-0.040;2022-07-10T11:36:16;26.70;87.10
45837;DHT22;31548;51.420;-0.040;2022-07-10T11:38:44;26.60;85.80
45837;DHT22;31548;51.420;-0.040;2022-07-10T11:41:20;26.70;85.70
45837;DHT22;31548;51.420;-0.040;2022-07-10T11:43:51;26.80;84.00
45837;DHT22;31548;51.420;-0.040;2022-07-10T11:46:20;26.80;83.60
45837;DHT22;31548;51.420;-0.040;2022-07-10T11:48:51;26.90;83.60
45837;DHT22;31548;51.420;-0.040;2022-07-10T11:53:57;27.10;84.50
45837;DHT22;31548;51.420;-0.040;2022-07-10T11:56:27;27.40;85.50
45837;DHT22;31548;51.420;-0.040;2022-07-10T12:01:27;27.90;83.70
45837;DHT22;31548;51.420;-0.040;2022-07-10T12:04:04;28.10;84.00
45837;DHT22;31548;51.420;-0.040;2022-07-10T12:06:34;28.20;83.90
45837;DHT22;31548;51.420;-0.040;2022-07-10T12:09:06;28.00;83.20
45837;DHT22;31548;51.420;-0.040;2022-07-10T12:11:35;28.00;82.90
45837;DHT22;31548;51.420;-0.040;2022-07-10T12:16:36;28.10;82.10
45837;DHT22;31548;51.420;-0.040;2022-07-10T12:19:06;28.10;82.00
45837;DHT22;31548;51.420;-0.040;2022-07-10T12:21:33;28.20;79.50
45837;DHT22;31548;51.420;-0.040;2022-07-10T12:24:02;28.50;78.50
45837;DHT22;31548;51.420;-0.040;2022-07-10T12:26:35;28.30;81.00
45837;DHT22;31548;51.420;-0.040;2022-07-10T12:29:03;28.40;80.60
45837;DHT22;31548;51.420;-0.040;2022-07-10T12:31:33;28.50;81.90
45837;DHT22;31548;51.420;-0.040;2022-07-10T12:34:05;28.90;81.10
45837;DHT22;31548;51.420;-0.040;2022-07-10T12:36:52;29.20;81.30
45837;DHT22;31548;51.420;-0.040;2022-07-10T12:39:22;29.50;81.20
45837;DHT22;31548;51.420;-0.040;2022-07-10T12:44:44;29.70;79.00
45837;DHT22;31548;51.420;-0.040;2022-07-10T12:47:16;29.20;78.20
45837;DHT22;31548;51.420;-0.040;2022-07-10T12:50:05;29.10;79.00
45837;DHT22;31548;51.420;-0.040;2022-07-10T12:52:37;29.00;78.50
45837;DHT22;31548;51.420;-0.040;2022-07-10T12:55:21;29.00;77.70
45837;DHT22;31548;51.420;-0.040;2022-07-10T12:57:50;29.20;79.40
45837;DHT22;31548;51.420;-0.040;2022-07-10T13:00:20;29.50;79.30
45837;DHT22;31548;51.420;-0.040;2022-07-10T13:02:49;29.70;78.10
45837;DHT22;31548;51.420;-0.040;2022-07-10T13:05:28;29.80;78.00
45837;DHT22;31548;51.420;-0.040;2022-07-10T13:10:37;30.00;77.90
45837;DHT22;31548;51.420;-0.040;2022-07-10T13:13:04;30.40;78.20
45837;DHT22;31548;51.420;-0.040;2022-07-10T13:15:32;30.40;77.40
45837;DHT22;31548;51.420;-0.040;2022-07-10T13:18:06;30.20;77.20
45837;DHT22;31548;51.420;-0.040;2022-07-10T13:20:34;29.90;76.20
45837;DHT22;31548;51.420;-0.040;2022-07-10T13:23:02;29.40;76.90
45837;DHT22;31548;51.420;-0.040;2022-07-10T13:25:29;29.10;79.40
45837;DHT22;31548;51.420;-0.040;2022-07-10T13:27:56;29.10;78.10
45837;DHT22;31548;51.420;-0.040;2022-07-10T13:30:24;29.50;77.90
45837;DHT22;31548;51.420;-0.040;2022-07-10T13:32:51;29.50;77.20
45837;DHT22;31548;51.420;-0.040;2022-07-10T13:35:18;29.50;76.80
45837;DHT22;31548;51.420;-0.040;2022-07-10T13:37:46;29.70;76.80
45837;DHT22;31548;51.420;-0.040;2022-07-10T13:40:14;29.90;77.00
45837;DHT22;31548;51.420;-0.040;2022-07-10T13:42:41;30.20;75.70
45837;DHT22;31548;51.420;-0.040;2022-07-10T13:45:08;30.60;74.80
45837;DHT22;31548;51.420;-0.040;2022-07-10T13:47:36;30.30;74.50
45837;DHT22;31548;51.420;-0.040;2022-07-10T13:50:04;30.80;75.10
45837;DHT22;31548;51.420;-0.040;2022-07-10T13:52:31;31.10;76.40
45837;DHT22;31548;51.420;-0.040;2022-07-10T13:54:58;31.80;76.60
45837;DHT22;31548;51.420;-0.040;2022-07-10T13:57:26;32.20;74.30
45837;DHT22;31548;51.420;-0.040;2022-07-10T13:59:54;32.00;73.80
45837;DHT22;31548;51.420;-0.040;2022-07-10T14:02:21;32.30;74.00
45837;DHT22;31548;51.420;-0.040;2022-07-10T14:04:49;31.90;72.40
45837;DHT22;31548;51.420;-0.040;2022-07-10T14:07:16;32.00;74.10
45837;DHT22;31548;51.420;-0.040;2022-07-10T14:09:43;31.90;72.70
45837;DHT22;31548;51.420;-0.040;2022-07-10T14:12:11;31.60;71.80
45837;DHT22;31548;51.420;-0.040;2022-07-10T14:14:39;31.40;72.90
45837;DHT22;31548;51.420;-0.040;2022-07-10T14:17:07;30.80;73.10
45837;DHT22;31548;51.420;-0.040;2022-07-10T14:19:34;30.60;72.80
45837;DHT22;31548;51.420;-0.040;2022-07-10T14:22:02;30.80;74.40
45837;DHT22;31548;51.420;-0.040;2022-07-10T14:24:30;31.20;72.90
45837;DHT22;31548;51.420;-0.040;2022-07-10T14:27:04;31.40;73.40
45837;DHT22;31548;51.420;-0.040;2022-07-10T14:29:33;31.60;71.90
45837;DHT22;31548;51.420;-0.040;2022-07-10T14:32:00;31.60;71.20
45837;DHT22;31548;51.420;-0.040;2022-07-10T14:34:28;31.50;70.40
45837;DHT22;31548;51.420;-0.040;2022-07-10T14:36:56;31.30;71.10
45837;DHT22;31548;51.420;-0.040;2022-07-10T14:39:27;31.30;72.30
45837;DHT22;31548;51.420;-0.040;2022-07-10T14:41:54;31.60;72.70
45837;DHT22;31548;51.420;-0.040;2022-07-10T14:44:23;31.60;71.20
45837;DHT22;31548;51.420;-0.040;2022-07-10T14:46:51;31.30;71.50
45837;DHT22;31548;51.420;-0.040;2022-07-10T14:49:18;31.00;71.30
45837;DHT22;31548;51.420;-0.040;2022-07-10T14:51:46;30.90;71.80
45837;DHT22;31548;51.420;-0.040;2022-07-10T14:54:13;31.10;71.70
45837;DHT22;31548;51.420;-0.040;2022-07-10T14:56:41;31.70;71.10
45837;DHT22;31548;51.420;-0.040;2022-07-10T14:59:10;31.70;71.00
45837;DHT22;31548;51.420;-0.040;2022-07-10T15:01:41;32.20;70.80
45837;DHT22;31548;51.420;-0.040;2022-07-10T15:04:09;32.80;69.20
45837;DHT22;31548;51.420;-0.040;2022-07-10T15:06:37;33.20;68.60
45837;DHT22;31548;51.420;-0.040;2022-07-10T15:09:04;33.80;69.60
45837;DHT22;31548;51.420;-0.040;2022-07-10T15:11:32;33.70;68.80
45837;DHT22;31548;51.420;-0.040;2022-07-10T15:14:01;34.10;67.10
45837;DHT22;31548;51.420;-0.040;2022-07-10T15:16:31;34.60;68.00
45837;DHT22;31548;51.420;-0.040;2022-07-10T15:18:59;34.90;67.50
45837;DHT22;31548;51.420;-0.040;2022-07-10T15:21:30;34.60;66.10
45837;DHT22;31548;51.420;-0.040;2022-07-10T15:23:57;34.20;66.70
45837;DHT22;31548;51.420;-0.040;2022-07-10T15:26:25;34.20;67.20
45837;DHT22;31548;51.420;-0.040;2022-07-10T15:28:53;33.80;66.40
45837;DHT22;31548;51.420;-0.040;2022-07-10T15:31:22;33.80;69.70
45837;DHT22;31548;51.420;-0.040;2022-07-10T15:33:50;33.90;66.80
45837;DHT22;31548;51.420;-0.040;2022-07-10T15:36:18;34.80;68.40
45837;DHT22;31548;51.420;-0.040;2022-07-10T15:38:46;34.50;65.80
45837;DHT22;31548;51.420;-0.040;2022-07-10T15:41:14;35.00;67.00
45837;DHT22;31548;51.420;-0.040;2022-07-10T15:43:41;35.20;65.40
45837;DHT22;31548;51.420;-0.040;2022-07-10T15:46:11;34.90;65.40
45837;DHT22;31548;51.420;-0.040;2022-07-10T15:48:41;35.40;65.50
45837;DHT22;31548;51.420;-0.040;2022-07-10T15:51:09;35.10;65.40
45837;DHT22;31548;51.420;-0.040;2022-07-10T15:53:37;35.00;65.70
45837;DHT22;31548;51.420;-0.040;2022-07-10T15:56:05;35.50;65.00
45837;DHT22;31548;51.420;-0.040;2022-07-10T15:58:32;35.70;64.00
45837;DHT22;31548;51.420;-0.040;2022-07-10T16:01:00;35.60;63.60
45837;DHT22;31548;51.420;-0.040;2022-07-10T16:03:27;35.80;63.50
45837;DHT22;31548;51.420;-0.040;2022-07-10T16:05:55;35.80;63.30
45837;DHT22;31548;51.420;-0.040;2022-07-10T16:08:22;35.90;63.30